createdAt,value
2018-01-21T00:00:28.421Z,35.13
2018-01-21T00:02:56.216Z,34.43
2018-01-21T00:05:23.251Z,28.83
2018-01-21T00:07:49.551Z,31.23
2018-01-21T00:10:15.837Z,33.30
2018-01-21T00:12:42.112Z,32.27
2018-01-21T00:15:08.401Z,31.90
2018-01-21T00:17:34.684Z,29.17
2018-01-21T00:20:00.976Z,29.77
2018-01-21T00:22:39.477Z,31.60
2018-01-21T00:25:05.777Z,28.10
2018-01-21T00:27:32.800Z,31.40
2018-01-21T00:29:59.081Z,28.10
2018-01-21T00:32:25.364Z,32.90
2018-01-21T00:34:51.636Z,33.43
2018-01-21T00:37:17.945Z,31.90
2018-01-21T00:39:44.958Z,30.43
2018-01-21T00:42:11.244Z,29.00
2018-01-21T00:44:37.530Z,31.40
2018-01-21T00:47:03.815Z,30.67
2018-01-21T00:49:30.092Z,32.97
2018-01-21T00:51:56.379Z,31.03
2018-01-21T00:54:22.672Z,29.60
2018-01-21T00:56:49.696Z,29.87
2018-01-21T00:59:16.739Z,31.67
2018-01-21T01:01:43.053Z,29.90
2018-01-21T01:04:09.355Z,28.50
2018-01-21T01:06:35.652Z,30.93
2018-01-21T01:09:02.699Z,29.30
2018-01-21T01:11:29.010Z,30.60
2018-01-21T01:13:55.280Z,28.73
2018-01-21T01:16:21.581Z,31.80
2018-01-21T01:18:48.674Z,29.60
2018-01-21T01:21:14.944Z,32.83
2018-01-21T01:23:41.249Z,34.53
2018-01-21T01:26:07.533Z,30.27
2018-01-21T01:28:34.592Z,32.87
2018-01-21T01:31:00.879Z,28.27
2018-01-21T01:33:27.170Z,30.03
2018-01-21T01:35:53.447Z,29.40
2018-01-21T01:38:20.481Z,28.60
2018-01-21T01:40:46.773Z,27.30
2018-01-21T01:43:13.066Z,29.80
2018-01-21T01:45:40.096Z,29.57
2018-01-21T01:48:06.406Z,32.13
2018-01-21T01:50:32.729Z,29.43
2018-01-21T01:52:59.024Z,31.00
2018-01-21T01:55:25.313Z,28.77
2018-01-21T01:57:51.619Z,31.63
2018-01-21T02:00:17.929Z,33.90
2018-01-21T02:02:44.224Z,29.70
2018-01-21T02:05:10.530Z,29.70
2018-01-21T02:07:38.275Z,28.20
2018-01-21T02:10:04.566Z,28.03
2018-01-21T02:12:30.853Z,25.73
2018-01-21T02:14:57.889Z,26.17
2018-01-21T02:17:24.180Z,31.10
2018-01-21T02:19:50.491Z,34.67
2018-01-21T02:22:16.782Z,28.17
2018-01-21T02:24:43.078Z,28.87
2018-01-21T02:27:09.353Z,28.43
2018-01-21T02:29:35.657Z,27.57
2018-01-21T02:32:01.933Z,31.47
2018-01-21T02:34:28.956Z,28.73
2018-01-21T02:36:55.234Z,28.30
2018-01-21T02:39:21.525Z,28.07
2018-01-21T02:41:47.812Z,29.00
2018-01-21T02:44:14.115Z,28.10
2018-01-21T02:46:40.406Z,29.07
2018-01-21T02:49:07.459Z,30.07
2018-01-21T02:51:33.736Z,29.77
2018-01-21T02:54:00.050Z,31.23
2018-01-21T02:56:26.336Z,29.43
2018-01-21T02:58:52.616Z,30.67
2018-01-21T03:01:18.899Z,30.57
2018-01-21T03:03:45.199Z,28.20
2018-01-21T03:06:11.492Z,30.20
2018-01-21T03:08:37.782Z,30.23
2018-01-21T03:11:04.833Z,32.90
2018-01-21T03:13:31.109Z,35.53
2018-01-21T03:15:57.412Z,34.80
2018-01-21T03:18:23.704Z,33.77
2018-01-21T03:20:50.024Z,29.93
2018-01-21T03:23:16.300Z,33.77
2018-01-21T03:25:42.597Z,34.60
2018-01-21T03:28:08.892Z,34.67
2018-01-21T03:30:35.184Z,35.27
2018-01-21T03:33:02.209Z,34.30
2018-01-21T03:35:28.528Z,32.17
2018-01-21T03:37:54.807Z,33.93
2018-01-21T03:40:21.105Z,40.73
2018-01-21T03:42:47.396Z,35.07
2018-01-21T03:45:13.716Z,42.87
2018-01-21T03:47:40.021Z,36.30
2018-01-21T03:50:06.301Z,35.07
2018-01-21T03:52:32.585Z,39.07
2018-01-21T03:54:58.869Z,38.00
2018-01-21T03:57:25.164Z,36.30
2018-01-21T03:59:51.427Z,39.70
2018-01-21T04:02:19.207Z,37.80
2018-01-21T04:04:45.549Z,36.60
2018-01-21T04:07:12.570Z,40.20
2018-01-21T04:09:38.838Z,37.07
2018-01-21T04:12:05.115Z,37.07
2018-01-21T04:14:31.394Z,39.93
2018-01-21T04:16:58.425Z,35.93
2018-01-21T04:19:25.449Z,33.00
2018-01-21T04:21:51.745Z,31.37
2018-01-21T04:24:18.031Z,33.60
2018-01-21T04:26:44.373Z,33.77
2018-01-21T04:29:10.655Z,35.00
2018-01-21T04:31:36.946Z,31.43
2018-01-21T04:34:03.645Z,30.53
2018-01-21T04:36:31.418Z,30.07
2018-01-21T04:38:58.451Z,29.57
2018-01-21T04:41:24.738Z,31.10
2018-01-21T04:43:51.038Z,32.67
2018-01-21T04:46:18.101Z,30.60
2018-01-21T04:48:44.377Z,29.00
2018-01-21T04:51:10.656Z,35.40
2018-01-21T04:53:36.940Z,30.40
2018-01-21T04:56:03.288Z,30.30
2018-01-21T04:58:29.587Z,29.93
2018-01-21T05:00:55.876Z,37.07
2018-01-21T05:03:22.184Z,29.77
2018-01-21T05:05:48.448Z,29.77
2018-01-21T05:08:14.747Z,32.67
2018-01-21T05:10:41.785Z,27.87
2018-01-21T05:13:08.071Z,30.80
2018-01-21T05:15:34.352Z,28.57
2018-01-21T05:18:01.377Z,28.50
2018-01-21T05:20:27.665Z,30.00
2018-01-21T05:22:53.952Z,30.80
2018-01-21T05:25:20.965Z,31.47
2018-01-21T05:27:47.260Z,30.40
2018-01-21T05:30:13.523Z,28.33
2018-01-21T05:32:39.811Z,26.73
2018-01-21T05:35:06.093Z,34.53
2018-01-21T05:37:32.370Z,29.60
2018-01-21T05:39:58.674Z,29.90
2018-01-21T05:42:25.691Z,29.80
2018-01-21T05:44:51.999Z,30.43
2018-01-21T05:47:18.268Z,32.90
2018-01-21T05:49:45.300Z,28.70
2018-01-21T05:52:11.564Z,30.40
2018-01-21T05:54:38.617Z,31.00
2018-01-21T05:57:04.898Z,32.17
2018-01-21T05:59:31.169Z,32.00
2018-01-21T06:01:58.189Z,31.93
2018-01-21T06:04:25.258Z,32.23
2018-01-21T06:06:52.269Z,31.83
2018-01-21T06:09:18.556Z,29.50
2018-01-21T06:11:44.833Z,34.37
2018-01-21T06:14:11.115Z,32.33
2018-01-21T06:16:37.397Z,32.40
2018-01-21T06:19:03.871Z,31.47
2018-01-21T06:21:30.155Z,30.63
2018-01-21T06:23:57.911Z,32.37
2018-01-21T06:26:24.204Z,32.10
2018-01-21T06:28:50.497Z,29.63
2018-01-21T06:31:17.604Z,31.00
2018-01-21T06:33:43.879Z,32.87
2018-01-21T06:36:10.917Z,31.53
2018-01-21T06:38:37.956Z,31.70
2018-01-21T06:41:04.253Z,27.53
2018-01-21T06:43:30.536Z,28.53
2018-01-21T06:45:57.566Z,31.43
2018-01-21T06:48:23.846Z,27.90
2018-01-21T06:50:50.127Z,27.70
2018-01-21T06:53:16.474Z,28.80
2018-01-21T06:55:43.486Z,28.90
2018-01-21T06:58:09.785Z,30.23
2018-01-21T07:00:36.100Z,27.97
2018-01-21T07:03:02.393Z,30.20
2018-01-21T07:05:28.675Z,30.50
2018-01-21T07:07:54.948Z,31.57
2018-01-21T07:10:21.279Z,29.23
2018-01-21T07:12:47.560Z,29.20
2018-01-21T07:15:13.861Z,30.37
2018-01-21T07:17:40.896Z,33.10
2018-01-21T07:20:07.906Z,32.10
2018-01-21T07:22:34.184Z,33.20
2018-01-21T07:25:01.215Z,33.53
2018-01-21T07:27:27.491Z,36.43
2018-01-21T07:29:53.767Z,35.07
2018-01-21T07:32:20.048Z,32.87
2018-01-21T07:34:46.314Z,35.83
2018-01-21T07:37:12.588Z,35.83
2018-01-21T07:39:38.868Z,32.83
2018-01-21T07:42:05.158Z,30.60
2018-01-21T07:44:31.427Z,28.97
2018-01-21T07:46:57.714Z,33.70
2018-01-21T07:49:23.988Z,29.47
2018-01-21T07:51:50.275Z,30.77
2018-01-21T07:54:16.551Z,30.60
2018-01-21T07:56:42.867Z,31.90
2018-01-21T07:59:09.163Z,33.70
2018-01-21T08:01:35.497Z,32.07
2018-01-21T08:04:01.801Z,33.07
2018-01-21T08:06:28.097Z,33.73
2018-01-21T08:08:54.416Z,32.87
2018-01-21T08:11:22.197Z,35.17
2018-01-21T08:13:48.537Z,36.17
2018-01-21T08:16:15.566Z,32.83
2018-01-21T08:18:41.859Z,32.93
2018-01-21T08:21:08.135Z,35.20
2018-01-21T08:23:34.423Z,35.97
2018-01-21T08:26:00.718Z,37.63
2018-01-21T08:28:27.080Z,37.23
2018-01-21T08:30:53.578Z,40.13
2018-01-21T08:33:20.614Z,38.27
2018-01-21T08:35:53.854Z,36.10
2018-01-21T08:38:26.204Z,38.93
2018-01-21T08:41:10.438Z,36.80
2018-01-21T08:43:36.737Z,35.70
2018-01-21T08:46:03.050Z,36.17
2018-01-21T08:48:29.429Z,41.23
2018-01-21T08:50:55.800Z,35.30
2018-01-21T08:53:22.141Z,32.70
2018-01-21T08:55:48.426Z,33.00
2018-01-21T08:58:14.723Z,33.90
2018-01-21T09:00:41.020Z,37.90
2018-01-21T09:03:07.308Z,32.00
2018-01-21T09:05:33.631Z,34.57
2018-01-21T09:08:00.664Z,33.53
2018-01-21T09:10:26.970Z,38.37
2018-01-21T09:12:53.257Z,34.17
2018-01-21T09:15:19.559Z,33.37
2018-01-21T09:17:45.836Z,34.43
2018-01-21T09:20:12.163Z,32.30
2018-01-21T09:22:38.506Z,31.87
2018-01-21T09:25:04.808Z,35.60
2018-01-21T09:27:31.486Z,36.77
2018-01-21T09:29:57.927Z,31.20
2018-01-21T09:32:24.980Z,34.10
2018-01-21T09:34:51.288Z,31.07
2018-01-21T09:37:17.562Z,28.07
2018-01-21T09:39:43.873Z,28.10
2018-01-21T09:42:10.158Z,31.37
2018-01-21T09:44:36.469Z,31.60
2018-01-21T09:47:02.898Z,35.93
2018-01-21T09:49:30.015Z,31.60
2018-01-21T09:51:56.361Z,33.30
2018-01-21T09:54:23.403Z,34.03
2018-01-21T09:56:49.722Z,28.47
2018-01-21T09:59:16.033Z,31.10
2018-01-21T10:01:43.097Z,34.20
2018-01-21T10:04:09.393Z,29.60
2018-01-21T10:06:35.708Z,30.37
2018-01-21T10:09:02.017Z,28.50
2018-01-21T10:11:28.316Z,31.03
2018-01-21T10:13:54.591Z,31.30
2018-01-21T10:16:20.899Z,34.60
2018-01-21T10:18:47.939Z,33.90
2018-01-21T10:21:14.983Z,34.50
2018-01-21T10:23:42.021Z,31.67
2018-01-21T10:26:08.314Z,32.80
2018-01-21T10:28:34.591Z,33.07
2018-01-21T10:31:00.878Z,32.80
2018-01-21T10:33:27.163Z,36.80
2018-01-21T10:35:54.206Z,34.83
2018-01-21T10:38:21.231Z,37.80
2018-01-21T10:40:47.521Z,33.23
2018-01-21T10:43:13.824Z,34.63
2018-01-21T10:45:40.856Z,33.83
2018-01-21T10:48:07.185Z,36.00
2018-01-21T10:50:34.219Z,31.60
2018-01-21T10:53:00.518Z,32.43
2018-01-21T10:55:26.818Z,33.33
2018-01-21T10:57:53.137Z,33.73
2018-01-21T11:00:19.429Z,35.13
2018-01-21T11:02:47.213Z,31.73
2018-01-21T11:05:14.259Z,31.67
2018-01-21T11:07:41.296Z,32.80
2018-01-21T11:10:07.588Z,30.27
2018-01-21T11:12:33.893Z,30.43
2018-01-21T11:15:00.210Z,31.30
2018-01-21T11:17:27.280Z,32.20
2018-01-21T11:19:53.582Z,34.20
2018-01-21T11:22:20.621Z,35.13
2018-01-21T11:24:47.643Z,30.63
2018-01-21T11:27:13.949Z,33.50
2018-01-21T11:29:40.283Z,31.47
2018-01-21T11:32:06.545Z,31.33
2018-01-21T11:34:33.608Z,32.60
2018-01-21T11:37:00.653Z,31.40
2018-01-21T11:39:26.988Z,36.43
2018-01-21T11:41:54.032Z,32.90
2018-01-21T11:44:21.250Z,30.90
2018-01-21T11:46:47.556Z,32.27
2018-01-21T11:49:13.852Z,35.17
2018-01-21T11:51:40.147Z,31.70
2018-01-21T11:54:06.565Z,31.67
2018-01-21T11:56:32.838Z,33.37
2018-01-21T11:58:59.941Z,32.67
2018-01-21T12:01:26.357Z,31.80
2018-01-21T12:03:52.675Z,32.20
2018-01-21T12:06:18.973Z,34.10
2018-01-21T12:08:46.016Z,31.77
2018-01-21T12:11:12.338Z,32.80
2018-01-21T12:13:38.627Z,31.80
2018-01-21T12:16:04.915Z,32.00
2018-01-21T12:18:31.989Z,33.43
2018-01-21T12:20:58.326Z,30.50
2018-01-21T12:23:24.603Z,30.53
2018-01-21T12:25:50.938Z,33.63
2018-01-21T12:28:17.969Z,31.37
2018-01-21T12:30:44.327Z,29.40
2018-01-21T12:33:11.370Z,32.00
2018-01-21T12:35:38.458Z,28.30
2018-01-21T12:38:04.766Z,25.40
2018-01-21T12:40:31.813Z,25.93
2018-01-21T12:42:58.167Z,25.53
2018-01-21T12:45:24.518Z,26.23
2018-01-21T12:47:50.805Z,26.93
2018-01-21T12:50:17.854Z,23.53
2018-01-21T12:52:44.165Z,21.70
2018-01-21T12:55:11.233Z,21.70
2018-01-21T12:57:38.263Z,20.10
2018-01-21T13:00:05.296Z,19.27
2018-01-21T13:02:32.345Z,17.03
2018-01-21T13:04:59.442Z,19.13
2018-01-21T13:07:25.788Z,17.87
2018-01-21T13:09:52.116Z,16.83
2018-01-21T13:12:18.457Z,21.77
2018-01-21T13:14:44.829Z,23.20
2018-01-21T13:17:11.868Z,23.40
2018-01-21T13:19:38.236Z,25.03
2018-01-21T13:22:04.563Z,23.13
2018-01-21T13:24:30.844Z,23.20
2018-01-21T13:26:57.173Z,24.10
2018-01-21T13:29:23.462Z,23.73
2018-01-21T13:31:49.810Z,22.83
2018-01-21T13:34:16.136Z,26.60
2018-01-21T13:36:42.410Z,26.57
2018-01-21T13:39:09.439Z,23.07
2018-01-21T13:41:35.739Z,26.47
2018-01-21T13:44:02.027Z,26.90
2018-01-21T13:46:29.065Z,22.40
2018-01-21T13:48:56.083Z,25.03
2018-01-21T13:51:23.112Z,20.87
2018-01-21T13:53:49.420Z,18.43
2018-01-21T13:56:15.711Z,20.93
2018-01-21T13:58:42.755Z,27.20
2018-01-21T14:01:09.046Z,25.43
2018-01-21T14:03:35.360Z,26.87
2018-01-21T14:06:01.636Z,26.33
2018-01-21T14:08:28.020Z,25.97
2018-01-21T14:10:54.360Z,24.93
2018-01-21T14:13:20.656Z,26.63
2018-01-21T14:15:47.743Z,22.97
2018-01-21T14:18:14.048Z,23.47
2018-01-21T14:20:40.344Z,23.97
2018-01-21T14:23:06.748Z,29.17
2018-01-21T14:25:33.079Z,29.50
2018-01-21T14:27:59.418Z,26.93
2018-01-21T14:30:25.768Z,28.77
2018-01-21T14:32:52.830Z,27.03
2018-01-21T14:35:19.864Z,27.10
2018-01-21T14:37:46.893Z,38.30
2018-01-21T14:40:13.242Z,30.13
2018-01-21T14:42:40.317Z,30.43
2018-01-21T14:45:06.677Z,38.90
2018-01-21T14:47:33.027Z,49.13
2018-01-21T14:49:59.326Z,80.50
2018-01-21T14:52:25.672Z,61.87
2018-01-21T14:54:51.997Z,35.20
2018-01-21T14:57:18.268Z,31.90
2018-01-21T14:59:44.557Z,88.43
2018-01-21T15:02:10.829Z,99.53
2018-01-21T15:04:37.939Z,63.63
2018-01-21T15:07:04.217Z,59.97
2018-01-21T15:09:31.255Z,60.03
2018-01-21T15:11:57.556Z,46.20
2018-01-21T15:14:23.843Z,52.40
2018-01-21T15:16:50.144Z,68.90
2018-01-21T15:19:16.432Z,77.60
2018-01-21T15:21:42.727Z,74.83
2018-01-21T15:24:09.129Z,115.67
2018-01-21T15:26:35.438Z,47.93
2018-01-21T15:29:01.833Z,92.53
2018-01-21T15:31:28.131Z,53.07
2018-01-21T15:33:55.144Z,73.33
2018-01-21T15:36:21.858Z,98.80
2018-01-21T15:38:48.197Z,43.60
2018-01-21T15:41:14.492Z,41.60
2018-01-21T15:43:40.820Z,50.27
2018-01-21T15:46:07.906Z,39.07
2018-01-21T15:48:34.180Z,61.20
2018-01-21T15:51:01.215Z,45.80
2018-01-21T15:53:27.529Z,50.33
2018-01-21T15:55:54.093Z,51.30
2018-01-21T15:58:21.125Z,49.33
2018-01-21T16:00:47.416Z,41.90
2018-01-21T16:03:13.712Z,56.33
2018-01-21T16:05:40.736Z,64.07
2018-01-21T16:08:07.828Z,39.03
2018-01-21T16:10:34.504Z,37.67
2018-01-21T16:13:01.568Z,45.70
2018-01-21T16:15:27.856Z,36.87
2018-01-21T16:17:54.218Z,34.40
2018-01-21T16:20:20.519Z,39.23
2018-01-21T16:22:46.817Z,34.27
2018-01-21T16:25:14.194Z,59.37
2018-01-21T16:27:40.518Z,76.43
2018-01-21T16:30:06.841Z,62.37
2018-01-21T16:32:33.185Z,53.63
2018-01-21T16:34:59.577Z,65.20
2018-01-21T16:37:38.344Z,63.90
2018-01-21T16:40:05.611Z,125.03
2018-01-21T16:42:31.943Z,47.27
2018-01-21T16:44:58.274Z,58.30
2018-01-21T16:47:24.572Z,67.53
2018-01-21T16:49:50.876Z,63.97
2018-01-21T16:52:17.895Z,115.20
2018-01-21T16:54:44.220Z,56.47
2018-01-21T16:57:10.517Z,59.90
2018-01-21T16:59:36.807Z,114.37
2018-01-21T17:02:03.881Z,76.97
2018-01-21T17:04:30.329Z,123.00
2018-01-21T17:06:56.615Z,100.77
2018-01-21T17:09:23.661Z,48.23
2018-01-21T17:11:50.741Z,30.97
2018-01-21T17:14:17.025Z,70.47
2018-01-21T17:16:43.355Z,43.90
2018-01-21T17:19:09.656Z,78.00
2018-01-21T17:21:35.983Z,47.80
2018-01-21T17:24:02.305Z,82.43
2018-01-21T17:26:28.761Z,72.57
2018-01-21T17:28:55.077Z,41.30
2018-01-21T17:31:21.417Z,37.87
2018-01-21T17:33:47.838Z,31.03
2018-01-21T17:36:14.166Z,39.73
2018-01-21T17:38:40.461Z,49.83
2018-01-21T17:41:06.834Z,74.57
2018-01-21T17:43:33.152Z,33.83
2018-01-21T17:45:59.489Z,55.63
2018-01-21T17:48:25.866Z,50.83
2018-01-21T17:50:52.322Z,54.37
2018-01-21T17:53:19.403Z,32.07
2018-01-21T17:55:45.723Z,47.23
2018-01-21T17:58:12.484Z,38.07
2018-01-21T18:00:39.651Z,45.43
2018-01-21T18:03:05.945Z,31.93
2018-01-21T18:05:32.358Z,38.57
2018-01-21T18:07:58.657Z,30.57
2018-01-21T18:10:25.710Z,26.27
2018-01-21T18:12:52.749Z,26.20
2018-01-21T18:15:20.599Z,29.03
2018-01-21T18:17:47.665Z,33.60
2018-01-21T18:20:13.996Z,26.73
2018-01-21T18:22:41.097Z,27.10
2018-01-21T18:25:07.499Z,26.60
2018-01-21T18:27:33.848Z,29.87
2018-01-21T18:30:00.313Z,19.23
2018-01-21T18:32:26.671Z,32.70
2018-01-21T18:34:53.756Z,32.90
2018-01-21T18:37:20.545Z,27.03
2018-01-21T18:39:46.888Z,39.17
2018-01-21T18:42:14.220Z,30.03
2018-01-21T18:44:40.718Z,26.17
2018-01-21T18:47:07.294Z,76.83
2018-01-21T18:49:33.827Z,92.63
2018-01-21T18:52:00.170Z,68.93
2018-01-21T18:54:27.247Z,47.57
2018-01-21T18:56:54.443Z,37.33
2018-01-21T18:59:20.789Z,17.90
2018-01-21T19:01:47.478Z,21.00
2018-01-21T19:04:14.589Z,17.67
2018-01-21T19:06:42.010Z,18.50
2018-01-21T19:09:08.668Z,19.47
2018-01-21T19:11:35.417Z,20.53
2018-01-21T19:14:02.401Z,19.50
2018-01-21T19:16:29.463Z,16.90
2018-01-21T19:18:55.835Z,18.00
2018-01-21T19:21:22.154Z,18.80
2018-01-21T19:23:48.516Z,20.50
2018-01-21T19:26:14.875Z,20.97
2018-01-21T19:28:41.219Z,27.23
2018-01-21T19:31:07.539Z,20.60
2018-01-21T19:33:33.839Z,20.73
2018-01-21T19:36:00.912Z,21.13
2018-01-21T19:38:27.290Z,21.90
2018-01-21T19:41:14.677Z,20.80
2018-01-21T19:43:41.037Z,20.27
2018-01-21T19:46:07.482Z,20.70
2018-01-21T19:48:35.362Z,21.37
2018-01-21T19:51:01.771Z,21.67
2018-01-21T19:53:28.124Z,22.83
2018-01-21T19:55:54.682Z,22.30
2018-01-21T19:58:21.997Z,20.20
2018-01-21T20:00:49.134Z,20.33
2018-01-21T20:03:15.884Z,19.83
2018-01-21T20:05:42.185Z,20.10
2018-01-21T20:08:08.523Z,24.67
2018-01-21T20:10:34.980Z,21.43
2018-01-21T20:13:10.147Z,26.00
2018-01-21T20:15:36.613Z,21.03
2018-01-21T20:18:02.998Z,27.50
2018-01-21T20:20:29.810Z,29.13
2018-01-21T20:22:56.193Z,26.20
2018-01-21T20:25:23.230Z,31.93
2018-01-21T20:27:50.866Z,24.37
2018-01-21T20:30:17.203Z,28.97
2018-01-21T20:32:43.487Z,31.70
2018-01-21T20:35:09.836Z,32.40
2018-01-21T20:37:36.149Z,29.57
2018-01-21T20:40:03.296Z,30.50
2018-01-21T20:42:29.635Z,35.37
2018-01-21T20:44:56.003Z,29.57
2018-01-21T20:47:22.383Z,31.33
2018-01-21T20:49:48.748Z,28.93
2018-01-21T20:52:21.109Z,27.50
2018-01-21T20:54:47.521Z,28.13
2018-01-21T20:57:14.096Z,28.43
2018-01-21T20:59:40.459Z,30.30
2018-01-21T21:02:07.512Z,28.90
2018-01-21T21:04:34.580Z,29.00
2018-01-21T21:07:00.921Z,26.83
2018-01-21T21:09:27.227Z,25.80
2018-01-21T21:11:53.565Z,30.60
2018-01-21T21:14:19.927Z,32.67
2018-01-21T21:16:46.266Z,27.83
2018-01-21T21:19:12.650Z,27.83
2018-01-21T21:21:39.708Z,28.67
2018-01-21T21:24:06.878Z,30.50
2018-01-21T21:26:33.256Z,23.27
2018-01-21T21:28:59.619Z,24.50
2018-01-21T21:31:26.042Z,24.60
2018-01-21T21:33:52.447Z,25.93
2018-01-21T21:36:19.543Z,20.97
2018-01-21T21:38:45.888Z,24.30
2018-01-21T21:41:12.403Z,24.13
2018-01-21T21:43:38.757Z,25.07
2018-01-21T21:46:05.117Z,28.10
2018-01-21T21:48:31.408Z,23.97
2018-01-21T21:50:57.783Z,27.47
2018-01-21T21:53:24.137Z,25.57
2018-01-21T21:55:51.262Z,26.13
2018-01-21T21:58:17.569Z,27.20
2018-01-21T22:00:43.919Z,28.50
2018-01-21T22:03:10.302Z,25.40
2018-01-21T22:05:36.654Z,27.10
2018-01-21T22:08:03.017Z,29.63
2018-01-21T22:10:29.340Z,23.50
2018-01-21T22:12:55.627Z,27.30
2018-01-21T22:15:22.009Z,26.50
2018-01-21T22:17:48.403Z,23.23
2018-01-21T22:20:14.693Z,23.70
2018-01-21T22:22:41.766Z,28.67
2018-01-21T22:25:08.114Z,30.77
2018-01-21T22:27:34.464Z,27.43
2018-01-21T22:30:01.064Z,27.40
2018-01-21T22:32:27.436Z,26.53
2018-01-21T22:34:53.766Z,25.87
2018-01-21T22:37:20.111Z,26.60
2018-01-21T22:39:46.389Z,31.30
2018-01-21T22:42:12.698Z,30.90
2018-01-21T22:44:39.041Z,28.40
2018-01-21T22:47:05.324Z,27.47
2018-01-21T22:49:31.628Z,29.27
2018-01-21T22:51:57.908Z,27.53
2018-01-21T22:54:24.948Z,28.57
2018-01-21T22:56:51.245Z,31.77
2018-01-21T22:59:17.528Z,28.20
2018-01-21T23:01:43.828Z,27.30
2018-01-21T23:04:10.880Z,27.20
2018-01-21T23:06:37.142Z,22.97
2018-01-21T23:09:03.468Z,25.57
2018-01-21T23:11:29.987Z,29.30
2018-01-21T23:13:57.032Z,23.03
2018-01-21T23:16:23.324Z,20.83
2018-01-21T23:18:49.620Z,25.40
2018-01-21T23:21:15.905Z,25.57
2018-01-21T23:23:42.942Z,27.57
2018-01-21T23:26:09.228Z,26.03
2018-01-21T23:28:35.520Z,25.47
2018-01-21T23:31:02.556Z,27.00
2018-01-21T23:33:28.853Z,26.63
2018-01-21T23:35:55.192Z,27.00
2018-01-21T23:38:21.467Z,28.70
2018-01-21T23:40:48.504Z,27.70
2018-01-21T23:43:15.538Z,28.73
2018-01-21T23:45:41.847Z,29.00
2018-01-21T23:48:08.120Z,29.03
2018-01-21T23:50:35.152Z,25.90
2018-01-21T23:53:02.195Z,26.10
2018-01-21T23:55:28.513Z,25.70
2018-01-21T23:57:54.783Z,25.07
